sensor_id;sensor_type;location;lat;lon;timestamp;pressure;altitude;pressure_sealevel;temperature;humidity
13695;BME280;6919;52.344;14.518;2022-09-30T00:01:43;100023.69;;;8.33;100.00
13695;BME280;6919;52.344;14.518;2022-09-30T00:04:15;100020.72;;;8.36;100.00
13695;BME280;6919;52.344;14.518;2022-09-30T00:06:44;100022.31;;;8.29;100.00
13695;BME280;6919;52.344;14.518;2022-09-30T00:09:14;100025.31;;;8.26;100.00
13695;BME280;6919;52.344;14.518;2022-09-30T00:11:42;100022.66;;;8.26;100.00
13695;BME280;6919;52.344;14.518;2022-09-30T00:14:16;100018.03;;;8.36;100.00
13695;BME280;6919;52.344;14.518;2022-09-30T00:16:46;100027.03;;;8.52;100.00
13695;BME280;6919;52.344;14.518;2022-09-30T00:19:14;100021.84;;;8.33;100.00
13695;BME280;6919;52.344;14.518;2022-09-30T00:21:43;100024.31;;;8.27;100.00
13695;BME280;6919;52.344;14.518;2022-09-30T00:24:11;100022.94;;;8.23;100.00
13695;BME280;6919;52.344;14.518;2022-09-30T00:26:40;100029.75;;;8.08;100.00
13695;BME280;6919;52.344;14.518;2022-09-30T00:29:09;100035.25;;;7.89;100.00
13695;BME280;6919;52.344;14.518;2022-09-30T00:31:39;100036.91;;;7.90;100.00
13695;BME280;6919;52.344;14.518;2022-09-30T00:34:08;100030.69;;;7.99;100.00
13695;BME280;6919;52.344;14.518;2022-09-30T00:36:41;100033.56;;;8.05;100.00
13695;BME280;6919;52.344;14.518;2022-09-30T00:39:13;100038.25;;;8.03;100.00
13695;BME280;6919;52.344;14.518;2022-09-30T00:41:44;100041.66;;;8.13;100.00
13695;BME280;6919;52.344;14.518;2022-09-30T00:44:47;100036.50;;;8.12;100.00
13695;BME280;6919;52.344;14.518;2022-09-30T00:47:39;100038.38;;;8.19;100.00
13695;BME280;6919;52.344;14.518;2022-09-30T00:50:32;100037.97;;;8.24;100.00
13695;BME280;6919;52.344;14.518;2022-09-30T00:53:09;100028.50;;;8.29;100.00
13695;BME280;6919;52.344;14.518;2022-09-30T00:55:50;100032.75;;;8.40;100.00
13695;BME280;6919;52.344;14.518;2022-09-30T00:58:27;100028.56;;;8.37;100.00
13695;BME280;6919;52.344;14.518;2022-09-30T01:00:59;100037.88;;;8.33;100.00
13695;BME280;6919;52.344;14.518;2022-09-30T01:03:32;100029.97;;;8.24;100.00
13695;BME280;6919;52.344;14.518;2022-09-30T01:06:03;100033.63;;;8.23;100.00
13695;BME280;6919;52.344;14.518;2022-09-30T01:08:36;100034.72;;;8.20;100.00
13695;BME280;6919;52.344;14.518;2022-09-30T01:11:05;100026.88;;;8.19;100.00
13695;BME280;6919;52.344;14.518;2022-09-30T01:13:36;100030.97;;;8.23;100.00
13695;BME280;6919;52.344;14.518;2022-09-30T01:16:31;100035.38;;;8.32;100.00
13695;BME280;6919;52.344;14.518;2022-09-30T01:19:26;100035.88;;;8.18;100.00
13695;BME280;6919;52.344;14.518;2022-09-30T01:22:14;100041.34;;;8.16;100.00
13695;BME280;6919;52.344;14.518;2022-09-30T01:25:32;100030.91;;;8.05;100.00
13695;BME280;6919;52.344;14.518;2022-09-30T01:28:47;100034.41;;;7.88;100.00
13695;BME280;6919;52.344;14.518;2022-09-30T01:31:38;100034.53;;;7.87;100.00
13695;BME280;6919;52.344;14.518;2022-09-30T01:34:21;100031.88;;;7.87;100.00
13695;BME280;6919;52.344;14.518;2022-09-30T01:37:07;100024.34;;;7.82;100.00
13695;BME280;6919;52.344;14.518;2022-09-30T01:39:49;100028.47;;;7.77;100.00
13695;BME280;6919;52.344;14.518;2022-09-30T01:42:28;100029.19;;;7.69;100.00
13695;BME280;6919;52.344;14.518;2022-09-30T01:45:09;100025.00;;;7.67;100.00
13695;BME280;6919;52.344;14.518;2022-09-30T01:47:50;100038.66;;;7.64;100.00
13695;BME280;6919;52.344;14.518;2022-09-30T01:50:30;100046.94;;;7.61;100.00
13695;BME280;6919;52.344;14.518;2022-09-30T01:53:11;100052.69;;;7.39;100.00
13695;BME280;6919;52.344;14.518;2022-09-30T01:55:49;100059.25;;;7.08;100.00
13695;BME280;6919;52.344;14.518;2022-09-30T01:58:34;100056.88;;;7.05;100.00
13695;BME280;6919;52.344;14.518;2022-09-30T02:01:09;100054.50;;;7.02;100.00
13695;BME280;6919;52.344;14.518;2022-09-30T02:03:47;100067.53;;;7.05;100.00
13695;BME280;6919;52.344;14.518;2022-09-30T02:06:21;100063.63;;;6.99;100.00
13695;BME280;6919;52.344;14.518;2022-09-30T02:08:56;100058.00;;;7.02;100.00
13695;BME280;6919;52.344;14.518;2022-09-30T02:11:29;100047.72;;;7.07;100.00
13695;BME280;6919;52.344;14.518;2022-09-30T02:14:04;100052.53;;;7.04;100.00
13695;BME280;6919;52.344;14.518;2022-09-30T02:16:39;100064.19;;;7.03;100.00
13695;BME280;6919;52.344;14.518;2022-09-30T02:19:18;100048.19;;;7.03;100.00
13695;BME280;6919;52.344;14.518;2022-09-30T02:21:55;100042.59;;;6.96;100.00
13695;BME280;6919;52.344;14.518;2022-09-30T02:24:30;100050.47;;;6.88;100.00
13695;BME280;6919;52.344;14.518;2022-09-30T02:27:07;100043.31;;;6.89;100.00
13695;BME280;6919;52.344;14.518;2022-09-30T02:29:45;100049.63;;;6.88;100.00
13695;BME280;6919;52.344;14.518;2022-09-30T02:32:21;100042.63;;;6.87;100.00
13695;BME280;6919;52.344;14.518;2022-09-30T02:34:58;100047.25;;;6.85;100.00
13695;BME280;6919;52.344;14.518;2022-09-30T02:37:35;100048.50;;;6.81;100.00
13695;BME280;6919;52.344;14.518;2022-09-30T02:40:10;100044.75;;;6.74;100.00
13695;BME280;6919;52.344;14.518;2022-09-30T02:42:44;100050.53;;;6.69;100.00
13695;BME280;6919;52.344;14.518;2022-09-30T02:45:17;100054.31;;;6.57;100.00
13695;BME280;6919;52.344;14.518;2022-09-30T02:48:05;100057.09;;;6.56;100.00
13695;BME280;6919;52.344;14.518;2022-09-30T02:50:46;100056.28;;;6.65;100.00
13695;BME280;6919;52.344;14.518;2022-09-30T02:53:25;100059.94;;;6.64;100.00
13695;BME280;6919;52.344;14.518;2022-09-30T02:56:18;100059.03;;;6.82;100.00
13695;BME280;6919;52.344;14.518;2022-09-30T02:58:51;100067.59;;;6.86;100.00
13695;BME280;6919;52.344;14.518;2022-09-30T03:01:24;100061.28;;;6.87;100.00
13695;BME280;6919;52.344;14.518;2022-09-30T03:03:55;100079.69;;;6.71;100.00
13695;BME280;6919;52.344;14.518;2022-09-30T03:06:26;100086.53;;;6.83;100.00
13695;BME280;6919;52.344;14.518;2022-09-30T03:08:54;100086.69;;;6.72;100.00
13695;BME280;6919;52.344;14.518;2022-09-30T03:11:26;100087.97;;;6.68;100.00
13695;BME280;6919;52.344;14.518;2022-09-30T03:14:36;100084.56;;;6.66;100.00
13695;BME280;6919;52.344;14.518;2022-09-30T03:17:57;100078.69;;;6.72;100.00
13695;BME280;6919;52.344;14.518;2022-09-30T03:20:42;100089.88;;;6.75;100.00
13695;BME280;6919;52.344;14.518;2022-09-30T03:23:37;100094.56;;;6.64;100.00
13695;BME280;6919;52.344;14.518;2022-09-30T03:26:20;100092.72;;;6.64;100.00
13695;BME280;6919;52.344;14.518;2022-09-30T03:29:11;100088.50;;;6.71;100.00
13695;BME280;6919;52.344;14.518;2022-09-30T03:31:54;100098.34;;;6.71;100.00
13695;BME280;6919;52.344;14.518;2022-09-30T03:34:29;100105.72;;;6.77;100.00
13695;BME280;6919;52.344;14.518;2022-09-30T03:37:06;100104.47;;;6.81;100.00
13695;BME280;6919;52.344;14.518;2022-09-30T03:39:53;100101.94;;;6.70;100.00
13695;BME280;6919;52.344;14.518;2022-09-30T03:42:28;100103.66;;;6.71;100.00
13695;BME280;6919;52.344;14.518;2022-09-30T03:45:07;100100.28;;;6.59;100.00
13695;BME280;6919;52.344;14.518;2022-09-30T03:47:43;100103.38;;;6.55;100.00
13695;BME280;6919;52.344;14.518;2022-09-30T03:50:19;100111.78;;;6.60;100.00
13695;BME280;6919;52.344;14.518;2022-09-30T03:52:49;100111.34;;;6.64;100.00
13695;BME280;6919;52.344;14.518;2022-09-30T03:55:19;100107.44;;;6.59;100.00
13695;BME280;6919;52.344;14.518;2022-09-30T03:57:49;100111.78;;;6.50;100.00
13695;BME280;6919;52.344;14.518;2022-09-30T04:00:18;100100.84;;;6.44;100.00
13695;BME280;6919;52.344;14.518;2022-09-30T04:02:46;100098.88;;;6.36;100.00
13695;BME280;6919;52.344;14.518;2022-09-30T04:05:14;100103.38;;;6.26;100.00
13695;BME280;6919;52.344;14.518;2022-09-30T04:07:42;100108.72;;;6.26;100.00
13695;BME280;6919;52.344;14.518;2022-09-30T04:10:10;100109.94;;;6.22;100.00
13695;BME280;6919;52.344;14.518;2022-09-30T04:12:40;100115.13;;;6.24;100.00
13695;BME280;6919;52.344;14.518;2022-09-30T04:15:09;100115.56;;;6.19;100.00
13695;BME280;6919;52.344;14.518;2022-09-30T04:17:37;100116.38;;;6.20;100.00
13695;BME280;6919;52.344;14.518;2022-09-30T04:20:06;100128.56;;;6.13;100.00
13695;BME280;6919;52.344;14.518;2022-09-30T04:22:34;100117.53;;;6.27;100.00
13695;BME280;6919;52.344;14.518;2022-09-30T04:25:03;100124.38;;;6.20;100.00
13695;BME280;6919;52.344;14.518;2022-09-30T04:27:31;100125.09;;;6.31;100.00
13695;BME280;6919;52.344;14.518;2022-09-30T04:30:01;100128.16;;;6.27;100.00
13695;BME280;6919;52.344;14.518;2022-09-30T04:32:29;100139.34;;;6.21;100.00
13695;BME280;6919;52.344;14.518;2022-09-30T04:34:58;100135.63;;;6.33;100.00
13695;BME280;6919;52.344;14.518;2022-09-30T04:37:26;100128.31;;;6.35;100.00
13695;BME280;6919;52.344;14.518;2022-09-30T04:39:54;100138.00;;;6.36;100.00
13695;BME280;6919;52.344;14.518;2022-09-30T04:42:22;100141.63;;;6.35;100.00
13695;BME280;6919;52.344;14.518;2022-09-30T04:44:50;100140.66;;;6.26;100.00
13695;BME280;6919;52.344;14.518;2022-09-30T04:47:19;100155.75;;;6.16;100.00
13695;BME280;6919;52.344;14.518;2022-09-30T04:49:50;100151.09;;;5.99;100.00
13695;BME280;6919;52.344;14.518;2022-09-30T04:52:19;100157.25;;;5.99;100.00
13695;BME280;6919;52.344;14.518;2022-09-30T04:54:47;100156.84;;;6.04;100.00
13695;BME280;6919;52.344;14.518;2022-09-30T04:57:15;100158.09;;;6.09;100.00
13695;BME280;6919;52.344;14.518;2022-09-30T04:59:43;100157.97;;;6.01;100.00
13695;BME280;6919;52.344;14.518;2022-09-30T05:02:12;100152.91;;;6.08;100.00
13695;BME280;6919;52.344;14.518;2022-09-30T05:04:42;100159.69;;;6.22;100.00
13695;BME280;6919;52.344;14.518;2022-09-30T05:07:10;100157.16;;;6.20;100.00
13695;BME280;6919;52.344;14.518;2022-09-30T05:09:38;100162.22;;;6.33;100.00
13695;BME280;6919;52.344;14.518;2022-09-30T05:12:06;100163.38;;;6.40;100.00
13695;BME280;6919;52.344;14.518;2022-09-30T05:14:34;100162.97;;;6.44;100.00
13695;BME280;6919;52.344;14.518;2022-09-30T05:17:03;100161.28;;;6.53;100.00
13695;BME280;6919;52.344;14.518;2022-09-30T05:19:31;100162.09;;;6.63;100.00
13695;BME280;6919;52.344;14.518;2022-09-30T05:22:00;100160.84;;;6.67;100.00
13695;BME280;6919;52.344;14.518;2022-09-30T05:24:29;100165.06;;;6.69;100.00
13695;BME280;6919;52.344;14.518;2022-09-30T05:26:57;100173.75;;;6.71;100.00
13695;BME280;6919;52.344;14.518;2022-09-30T05:29:25;100179.50;;;6.86;100.00
13695;BME280;6919;52.344;14.518;2022-09-30T05:31:53;100182.72;;;6.89;100.00
13695;BME280;6919;52.344;14.518;2022-09-30T05:34:21;100187.09;;;6.90;100.00
13695;BME280;6919;52.344;14.518;2022-09-30T05:36:49;100198.44;;;6.92;100.00
13695;BME280;6919;52.344;14.518;2022-09-30T05:39:18;100201.53;;;7.07;100.00
13695;BME280;6919;52.344;14.518;2022-09-30T05:41:46;100197.56;;;7.11;100.00
13695;BME280;6919;52.344;14.518;2022-09-30T05:44:14;100207.94;;;7.23;100.00
13695;BME280;6919;52.344;14.518;2022-09-30T05:46:43;100208.06;;;7.31;100.00
13695;BME280;6919;52.344;14.518;2022-09-30T05:49:11;100209.06;;;7.21;100.00
13695;BME280;6919;52.344;14.518;2022-09-30T05:51:39;100215.09;;;7.23;100.00
13695;BME280;6919;52.344;14.518;2022-09-30T05:54:08;100217.50;;;7.16;100.00
13695;BME280;6919;52.344;14.518;2022-09-30T05:56:38;100210.19;;;7.28;100.00
13695;BME280;6919;52.344;14.518;2022-09-30T05:59:06;100220.69;;;7.39;100.00
13695;BME280;6919;52.344;14.518;2022-09-30T06:01:35;100219.41;;;7.52;100.00
13695;BME280;6919;52.344;14.518;2022-09-30T06:04:03;100212.47;;;7.69;100.00
13695;BME280;6919;52.344;14.518;2022-09-30T06:06:31;100216.25;;;7.66;100.00
13695;BME280;6919;52.344;14.518;2022-09-30T06:08:59;100219.94;;;7.65;100.00
13695;BME280;6919;52.344;14.518;2022-09-30T06:11:27;100220.59;;;7.77;100.00
13695;BME280;6919;52.344;14.518;2022-09-30T06:13:57;100220.72;;;7.85;100.00
13695;BME280;6919;52.344;14.518;2022-09-30T06:16:25;100220.38;;;7.97;100.00
13695;BME280;6919;52.344;14.518;2022-09-30T06:18:53;100222.75;;;8.00;100.00
13695;BME280;6919;52.344;14.518;2022-09-30T06:21:21;100224.66;;;8.17;100.00
13695;BME280;6919;52.344;14.518;2022-09-30T06:23:49;100233.72;;;8.34;100.00
13695;BME280;6919;52.344;14.518;2022-09-30T06:26:17;100237.63;;;8.39;100.00
13695;BME280;6919;52.344;14.518;2022-09-30T06:28:45;100238.59;;;8.65;100.00
13695;BME280;6919;52.344;14.518;2022-09-30T06:31:15;100245.31;;;8.69;100.00
13695;BME280;6919;52.344;14.518;2022-09-30T06:33:43;100251.22;;;8.73;100.00
13695;BME280;6919;52.344;14.518;2022-09-30T06:36:12;100263.75;;;8.90;100.00
13695;BME280;6919;52.344;14.518;2022-09-30T06:38:40;100252.69;;;9.02;100.00
13695;BME280;6919;52.344;14.518;2022-09-30T06:41:08;100259.84;;;9.02;100.00
13695;BME280;6919;52.344;14.518;2022-09-30T06:43:38;100259.31;;;9.16;100.00
13695;BME280;6919;52.344;14.518;2022-09-30T06:46:28;100257.00;;;9.21;100.00
13695;BME280;6919;52.344;14.518;2022-09-30T06:48:57;100256.78;;;9.32;100.00
13695;BME280;6919;52.344;14.518;2022-09-30T06:51:39;100264.31;;;9.54;100.00
13695;BME280;6919;52.344;14.518;2022-09-30T06:54:08;100262.13;;;9.75;100.00
13695;BME280;6919;52.344;14.518;2022-09-30T06:56:36;100259.22;;;9.94;100.00
13695;BME280;6919;52.344;14.518;2022-09-30T06:59:04;100256.28;;;10.31;100.00
13695;BME280;6919;52.344;14.518;2022-09-30T07:01:34;100256.22;;;10.56;100.00
13695;BME280;6919;52.344;14.518;2022-09-30T07:04:02;100257.50;;;10.94;100.00
13695;BME280;6919;52.344;14.518;2022-09-30T07:06:35;100259.69;;;11.06;100.00
13695;BME280;6919;52.344;14.518;2022-09-30T07:09:05;100267.06;;;11.12;100.00
13695;BME280;6919;52.344;14.518;2022-09-30T07:11:34;100275.13;;;11.20;100.00
13695;BME280;6919;52.344;14.518;2022-09-30T07:14:04;100285.69;;;11.14;100.00
13695;BME280;6919;52.344;14.518;2022-09-30T07:16:33;100287.84;;;11.02;100.00
13695;BME280;6919;52.344;14.518;2022-09-30T07:19:03;100294.25;;;11.09;100.00
13695;BME280;6919;52.344;14.518;2022-09-30T07:21:32;100291.44;;;10.69;100.00
13695;BME280;6919;52.344;14.518;2022-09-30T07:24:01;100297.41;;;11.05;100.00
13695;BME280;6919;52.344;14.518;2022-09-30T07:26:29;100288.72;;;11.35;100.00
13695;BME280;6919;52.344;14.518;2022-09-30T07:28:57;100295.63;;;11.45;100.00
13695;BME280;6919;52.344;14.518;2022-09-30T07:31:27;100293.94;;;11.60;100.00
13695;BME280;6919;52.344;14.518;2022-09-30T07:34:03;100295.13;;;11.74;100.00
13695;BME280;6919;52.344;14.518;2022-09-30T07:36:34;100307.75;;;11.65;100.00
13695;BME280;6919;52.344;14.518;2022-09-30T07:39:06;100298.66;;;11.58;100.00
13695;BME280;6919;52.344;14.518;2022-09-30T07:41:37;100300.31;;;11.43;100.00
13695;BME280;6919;52.344;14.518;2022-09-30T07:44:09;100297.31;;;11.30;100.00
13695;BME280;6919;52.344;14.518;2022-09-30T07:46:41;100291.94;;;11.38;100.00
13695;BME280;6919;52.344;14.518;2022-09-30T07:49:15;100300.31;;;11.59;100.00
13695;BME280;6919;52.344;14.518;2022-09-30T07:51:53;100305.03;;;11.49;100.00
13695;BME280;6919;52.344;14.518;2022-09-30T07:54:26;100301.53;;;11.89;100.00
13695;BME280;6919;52.344;14.518;2022-09-30T07:56:55;100301.50;;;11.97;100.00
13695;BME280;6919;52.344;14.518;2022-09-30T07:59:39;100306.19;;;12.11;100.00
13695;BME280;6919;52.344;14.518;2022-09-30T08:02:13;100310.78;;;12.41;100.00
13695;BME280;6919;52.344;14.518;2022-09-30T08:04:44;100320.00;;;12.47;100.00
13695;BME280;6919;52.344;14.518;2022-09-30T08:07:15;100322.53;;;12.48;100.00
13695;BME280;6919;52.344;14.518;2022-09-30T08:09:44;100321.28;;;12.67;100.00
13695;BME280;6919;52.344;14.518;2022-09-30T08:12:12;100332.38;;;12.72;100.00
13695;BME280;6919;52.344;14.518;2022-09-30T08:14:40;100333.72;;;12.76;100.00
13695;BME280;6919;52.344;14.518;2022-09-30T08:17:10;100340.38;;;12.88;100.00
13695;BME280;6919;52.344;14.518;2022-09-30T08:19:38;100337.50;;;12.89;100.00
13695;BME280;6919;52.344;14.518;2022-09-30T08:22:11;100335.13;;;13.02;100.00
13695;BME280;6919;52.344;14.518;2022-09-30T08:24:40;100338.75;;;12.71;100.00
13695;BME280;6919;52.344;14.518;2022-09-30T08:27:08;100341.06;;;12.43;100.00
13695;BME280;6919;52.344;14.518;2022-09-30T08:29:36;100339.06;;;12.84;100.00
13695;BME280;6919;52.344;14.518;2022-09-30T08:32:23;100341.50;;;13.01;100.00
13695;BME280;6919;52.344;14.518;2022-09-30T08:34:51;100343.38;;;12.93;100.00
13695;BME280;6919;52.344;14.518;2022-09-30T08:37:20;100341.91;;;13.21;100.00
13695;BME280;6919;52.344;14.518;2022-09-30T08:39:49;100349.84;;;13.45;100.00
13695;BME280;6919;52.344;14.518;2022-09-30T08:42:42;100358.41;;;13.48;100.00
13695;BME280;6919;52.344;14.518;2022-09-30T08:45:36;100360.16;;;13.64;100.00
13695;BME280;6919;52.344;14.518;2022-09-30T08:48:27;100353.91;;;13.86;100.00
13695;BME280;6919;52.344;14.518;2022-09-30T08:51:08;100354.16;;;14.13;100.00
13695;BME280;6919;52.344;14.518;2022-09-30T08:53:42;100353.03;;;14.30;100.00
13695;BME280;6919;52.344;14.518;2022-09-30T08:56:21;100354.59;;;14.25;100.00
13695;BME280;6919;52.344;14.518;2022-09-30T08:58:55;100357.97;;;14.56;100.00
13695;BME280;6919;52.344;14.518;2022-09-30T09:01:31;100352.84;;;14.61;100.00
13695;BME280;6919;52.344;14.518;2022-09-30T09:04:02;100351.00;;;14.47;100.00
13695;BME280;6919;52.344;14.518;2022-09-30T09:06:39;100351.19;;;14.60;100.00
13695;BME280;6919;52.344;14.518;2022-09-30T09:09:37;100351.66;;;14.78;100.00
13695;BME280;6919;52.344;14.518;2022-09-30T09:12:26;100342.09;;;15.11;100.00
13695;BME280;6919;52.344;14.518;2022-09-30T09:15:16;100347.09;;;15.29;100.00
13695;BME280;6919;52.344;14.518;2022-09-30T09:18:07;100350.44;;;15.45;100.00
13695;BME280;6919;52.344;14.518;2022-09-30T09:20:55;100357.13;;;15.49;100.00
13695;BME280;6919;52.344;14.518;2022-09-30T09:23:24;100358.34;;;15.47;100.00
13695;BME280;6919;52.344;14.518;2022-09-30T09:25:55;100369.72;;;15.42;100.00
13695;BME280;6919;52.344;14.518;2022-09-30T09:28:33;100361.38;;;15.37;100.00
13695;BME280;6919;52.344;14.518;2022-09-30T09:31:04;100354.41;;;15.49;100.00
13695;BME280;6919;52.344;14.518;2022-09-30T09:33:37;100349.78;;;15.64;100.00
13695;BME280;6919;52.344;14.518;2022-09-30T09:36:25;100344.91;;;15.53;100.00
13695;BME280;6919;52.344;14.518;2022-09-30T09:39:17;100345.75;;;15.54;100.00
13695;BME280;6919;52.344;14.518;2022-09-30T09:41:56;100347.53;;;15.47;100.00
13695;BME280;6919;52.344;14.518;2022-09-30T09:44:37;100353.25;;;15.79;100.00
13695;BME280;6919;52.344;14.518;2022-09-30T09:47:11;100348.16;;;16.12;100.00
13695;BME280;6919;52.344;14.518;2022-09-30T09:49:42;100347.50;;;16.37;100.00
13695;BME280;6919;52.344;14.518;2022-09-30T09:52:37;100349.72;;;16.48;100.00
13695;BME280;6919;52.344;14.518;2022-09-30T09:55:08;100346.72;;;16.16;100.00
13695;BME280;6919;52.344;14.518;2022-09-30T09:57:39;100346.41;;;16.53;100.00
13695;BME280;6919;52.344;14.518;2022-09-30T10:00:09;100344.28;;;16.82;100.00
13695;BME280;6919;52.344;14.518;2022-09-30T10:03:01;100341.47;;;17.03;100.00
13695;BME280;6919;52.344;14.518;2022-09-30T10:05:32;100341.31;;;17.18;100.00
13695;BME280;6919;52.344;14.518;2022-09-30T10:08:13;100338.91;;;16.89;100.00
13695;BME280;6919;52.344;14.518;2022-09-30T10:10:48;100341.88;;;16.60;100.00
13695;BME280;6919;52.344;14.518;2022-09-30T10:13:21;100343.03;;;16.44;100.00
13695;BME280;6919;52.344;14.518;2022-09-30T10:15:53;100331.75;;;16.75;100.00
13695;BME280;6919;52.344;14.518;2022-09-30T10:18:27;100336.00;;;16.90;100.00
13695;BME280;6919;52.344;14.518;2022-09-30T10:21:00;100334.84;;;16.72;100.00
13695;BME280;6919;52.344;14.518;2022-09-30T10:23:31;100343.28;;;16.28;100.00
13695;BME280;6919;52.344;14.518;2022-09-30T10:26:04;100336.41;;;16.53;100.00
13695;BME280;6919;52.344;14.518;2022-09-30T10:28:46;100341.88;;;17.00;100.00
13695;BME280;6919;52.344;14.518;2022-09-30T10:31:22;100331.91;;;17.07;100.00
13695;BME280;6919;52.344;14.518;2022-09-30T10:33:59;100333.47;;;16.82;100.00
13695;BME280;6919;52.344;14.518;2022-09-30T10:36:32;100331.69;;;16.41;98.89
13695;BME280;6919;52.344;14.518;2022-09-30T10:39:06;100334.66;;;16.73;100.00
13695;BME280;6919;52.344;14.518;2022-09-30T10:41:37;100329.06;;;16.81;100.00
13695;BME280;6919;52.344;14.518;2022-09-30T10:44:14;100339.38;;;16.58;100.00
13695;BME280;6919;52.344;14.518;2022-09-30T10:46:46;100341.81;;;16.87;100.00
13695;BME280;6919;52.344;14.518;2022-09-30T10:49:25;100338.91;;;16.95;99.37
13695;BME280;6919;52.344;14.518;2022-09-30T10:51:56;100333.03;;;17.32;100.00
13695;BME280;6919;52.344;14.518;2022-09-30T10:54:49;100325.00;;;17.59;93.08
13695;BME280;6919;52.344;14.518;2022-09-30T10:57:23;100325.94;;;17.31;98.83
13695;BME280;6919;52.344;14.518;2022-09-30T10:59:59;100331.75;;;16.75;98.48
13695;BME280;6919;52.344;14.518;2022-09-30T11:02:36;100325.03;;;16.64;100.00
13695;BME280;6919;52.344;14.518;2022-09-30T11:05:14;100322.53;;;17.03;100.00
13695;BME280;6919;52.344;14.518;2022-09-30T11:07:52;100323.78;;;17.14;99.53
13695;BME280;6919;52.344;14.518;2022-09-30T11:10:33;100325.19;;;17.44;95.41
13695;BME280;6919;52.344;14.518;2022-09-30T11:13:12;100319.78;;;17.77;94.75
13695;BME280;6919;52.344;14.518;2022-09-30T11:15:56;100319.78;;;17.77;97.95
13695;BME280;6919;52.344;14.518;2022-09-30T11:18:35;100323.16;;;17.79;100.00
13695;BME280;6919;52.344;14.518;2022-09-30T11:21:11;100323.13;;;17.85;99.30
13695;BME280;6919;52.344;14.518;2022-09-30T11:23:47;100323.16;;;17.92;96.16
13695;BME280;6919;52.344;14.518;2022-09-30T11:26:33;100319.59;;;18.11;97.63
13695;BME280;6919;52.344;14.518;2022-09-30T11:29:30;100322.31;;;17.72;99.23
13695;BME280;6919;52.344;14.518;2022-09-30T11:32:15;100325.97;;;17.38;99.30
13695;BME280;6919;52.344;14.518;2022-09-30T11:34:58;100313.09;;;17.53;100.00
13695;BME280;6919;52.344;14.518;2022-09-30T11:37:52;100307.50;;;17.94;100.00
13695;BME280;6919;52.344;14.518;2022-09-30T11:40:30;100309.34;;;18.32;97.44
13695;BME280;6919;52.344;14.518;2022-09-30T11:43:16;100313.97;;;17.99;95.31
13695;BME280;6919;52.344;14.518;2022-09-30T11:49:09;100314.72;;;17.41;100.00
13695;BME280;6919;52.344;14.518;2022-09-30T11:51:51;100308.00;;;17.24;100.00
13695;BME280;6919;52.344;14.518;2022-09-30T11:54:42;100313.34;;;17.78;100.00
13695;BME280;6919;52.344;14.518;2022-09-30T11:57:20;100313.94;;;17.54;94.22
13695;BME280;6919;52.344;14.518;2022-09-30T11:59:55;100311.13;;;17.27;98.05
13695;BME280;6919;52.344;14.518;2022-09-30T12:02:34;100319.78;;;17.77;100.00
13695;BME280;6919;52.344;14.518;2022-09-30T12:05:10;100313.94;;;17.86;89.40
13695;BME280;6919;52.344;14.518;2022-09-30T12:07:46;100321.47;;;18.23;94.47
13695;BME280;6919;52.344;14.518;2022-09-30T12:10:22;100314.75;;;18.65;93.29
13695;BME280;6919;52.344;14.518;2022-09-30T12:12:58;100318.47;;;18.77;84.74
13695;BME280;6919;52.344;14.518;2022-09-30T12:15:30;100310.78;;;19.18;81.28
13695;BME280;6919;52.344;14.518;2022-09-30T12:18:04;100317.94;;;18.49;79.65
13695;BME280;6919;52.344;14.518;2022-09-30T12:20:41;100316.28;;;17.96;81.47
13695;BME280;6919;52.344;14.518;2022-09-30T12:23:19;100312.72;;;17.69;86.03
13695;BME280;6919;52.344;14.518;2022-09-30T12:25:53;100320.94;;;17.35;90.54
13695;BME280;6919;52.344;14.518;2022-09-30T12:28:32;100320.03;;;17.08;92.91
13695;BME280;6919;52.344;14.518;2022-09-30T12:31:55;100313.16;;;17.12;96.09
13695;BME280;6919;52.344;14.518;2022-09-30T12:34:47;100316.44;;;17.62;93.81
13695;BME280;6919;52.344;14.518;2022-09-30T12:37:41;100311.69;;;17.83;95.56
13695;BME280;6919;52.344;14.518;2022-09-30T12:40:44;100305.63;;;17.81;96.55
13695;BME280;6919;52.344;14.518;2022-09-30T12:44:06;100303.50;;;18.16;91.90
13695;BME280;6919;52.344;14.518;2022-09-30T12:47:07;100301.03;;;17.69;94.59
13695;BME280;6919;52.344;14.518;2022-09-30T12:49:42;100298.50;;;18.52;87.15
13695;BME280;6919;52.344;14.518;2022-09-30T12:52:16;100298.50;;;18.45;85.65
13695;BME280;6919;52.344;14.518;2022-09-30T12:54:52;100306.34;;;18.79;87.28
13695;BME280;6919;52.344;14.518;2022-09-30T12:57:26;100307.53;;;18.96;80.93
13695;BME280;6919;52.344;14.518;2022-09-30T13:00:04;100312.28;;;18.50;83.79
13695;BME280;6919;52.344;14.518;2022-09-30T13:02:37;100308.31;;;18.40;83.91
13695;BME280;6919;52.344;14.518;2022-09-30T13:05:50;100311.84;;;18.34;87.93
13695;BME280;6919;52.344;14.518;2022-09-30T13:08:45;100302.28;;;18.12;90.27
13695;BME280;6919;52.344;14.518;2022-09-30T13:11:40;100302.28;;;18.18;89.52
13695;BME280;6919;52.344;14.518;2022-09-30T13:14:31;100307.28;;;17.95;96.59
13695;BME280;6919;52.344;14.518;2022-09-30T13:17:33;100305.38;;;18.35;92.30
13695;BME280;6919;52.344;14.518;2022-09-30T13:20:49;100308.50;;;18.25;90.78
13695;BME280;6919;52.344;14.518;2022-09-30T13:23:39;100316.44;;;18.46;85.17
13695;BME280;6919;52.344;14.518;2022-09-30T13:26:43;100313.31;;;18.30;84.61
13695;BME280;6919;52.344;14.518;2022-09-30T13:29:35;100315.59;;;18.65;89.10
13695;BME280;6919;52.344;14.518;2022-09-30T13:32:09;100319.41;;;18.38;88.03
13695;BME280;6919;52.344;14.518;2022-09-30T13:34:55;100318.75;;;18.30;93.51
13695;BME280;6919;52.344;14.518;2022-09-30T13:37:35;100316.03;;;18.10;93.47
13695;BME280;6919;52.344;14.518;2022-09-30T13:40:20;100315.22;;;17.84;99.00